sensor_id;sensor_type;location;lat;lon;timestamp;P1;durP1;ratioP1;P2;durP2;ratioP2
48534;SDS011;34323;52.022;5.686;2023-10-09T00:00:56;25.50;;;14.48;;
48534;SDS011;34323;52.022;5.686;2023-10-09T00:03:41;30.48;;;16.23;;
48534;SDS011;34323;52.022;5.686;2023-10-09T00:06:08;31.60;;;14.82;;
48534;SDS011;34323;52.022;5.686;2023-10-09T00:08:40;31.50;;;15.50;;
48534;SDS011;34323;52.022;5.686;2023-10-09T00:11:09;31.83;;;15.30;;
48534;SDS011;34323;52.022;5.686;2023-10-09T00:13:40;28.85;;;16.08;;
48534;SDS011;34323;52.022;5.686;2023-10-09T00:16:16;27.80;;;15.65;;
48534;SDS011;34323;52.022;5.686;2023-10-09T00:19:09;32.78;;;16.55;;
48534;SDS011;34323;52.022;5.686;2023-10-09T00:21:46;28.60;;;16.48;;
48534;SDS011;34323;52.022;5.686;2023-10-09T00:24:13;33.55;;;16.63;;
48534;SDS011;34323;52.022;5.686;2023-10-09T00:26:39;33.50;;;16.63;;
48534;SDS011;34323;52.022;5.686;2023-10-09T00:29:11;31.95;;;16.90;;
48534;SDS011;34323;52.022;5.686;2023-10-09T00:31:53;39.58;;;18.25;;
48534;SDS011;34323;52.022;5.686;2023-10-09T00:34:41;39.00;;;18.70;;
48534;SDS011;34323;52.022;5.686;2023-10-09T00:37:10;40.00;;;18.65;;
48534;SDS011;34323;52.022;5.686;2023-10-09T00:39:42;33.25;;;16.65;;
48534;SDS011;34323;52.022;5.686;2023-10-09T00:42:12;34.50;;;17.48;;
48534;SDS011;34323;52.022;5.686;2023-10-09T00:44:39;31.58;;;16.08;;
48534;SDS011;34323;52.022;5.686;2023-10-09T00:47:13;38.63;;;17.65;;
48534;SDS011;34323;52.022;5.686;2023-10-09T00:49:56;30.75;;;16.17;;
48534;SDS011;34323;52.022;5.686;2023-10-09T00:52:35;31.30;;;16.40;;
48534;SDS011;34323;52.022;5.686;2023-10-09T00:55:23;36.38;;;17.35;;
48534;SDS011;34323;52.022;5.686;2023-10-09T00:58:07;31.23;;;16.25;;
48534;SDS011;34323;52.022;5.686;2023-10-09T01:03:09;31.95;;;17.50;;
48534;SDS011;34323;52.022;5.686;2023-10-09T01:05:47;31.92;;;16.83;;
48534;SDS011;34323;52.022;5.686;2023-10-09T01:08:21;33.75;;;18.00;;
48534;SDS011;34323;52.022;5.686;2023-10-09T01:10:54;32.65;;;16.42;;
48534;SDS011;34323;52.022;5.686;2023-10-09T01:13:38;32.00;;;16.95;;
48534;SDS011;34323;52.022;5.686;2023-10-09T01:16:25;29.80;;;17.02;;
48534;SDS011;34323;52.022;5.686;2023-10-09T01:18:52;29.20;;;15.77;;
48534;SDS011;34323;52.022;5.686;2023-10-09T01:21:22;31.35;;;17.33;;
48534;SDS011;34323;52.022;5.686;2023-10-09T01:23:52;31.83;;;16.67;;
48534;SDS011;34323;52.022;5.686;2023-10-09T01:26:28;31.48;;;18.40;;
48534;SDS011;34323;52.022;5.686;2023-10-09T01:29:04;32.70;;;18.40;;
48534;SDS011;34323;52.022;5.686;2023-10-09T01:31:44;33.05;;;17.95;;
48534;SDS011;34323;52.022;5.686;2023-10-09T01:34:31;29.65;;;18.08;;
48534;SDS011;34323;52.022;5.686;2023-10-09T01:37:10;34.35;;;17.50;;
48534;SDS011;34323;52.022;5.686;2023-10-09T01:39:43;31.42;;;17.25;;
48534;SDS011;34323;52.022;5.686;2023-10-09T01:42:13;36.83;;;17.27;;
48534;SDS011;34323;52.022;5.686;2023-10-09T01:44:55;31.15;;;17.67;;
48534;SDS011;34323;52.022;5.686;2023-10-09T01:47:23;37.85;;;17.95;;
48534;SDS011;34323;52.022;5.686;2023-10-09T01:49:50;36.15;;;18.60;;
48534;SDS011;34323;52.022;5.686;2023-10-09T01:52:18;28.25;;;17.58;;
48534;SDS011;34323;52.022;5.686;2023-10-09T01:54:46;31.60;;;17.38;;
48534;SDS011;34323;52.022;5.686;2023-10-09T01:57:13;30.40;;;17.50;;
48534;SDS011;34323;52.022;5.686;2023-10-09T01:59:43;34.97;;;18.65;;
48534;SDS011;34323;52.022;5.686;2023-10-09T02:02:10;29.25;;;16.90;;
48534;SDS011;34323;52.022;5.686;2023-10-09T02:05:01;34.42;;;17.90;;
48534;SDS011;34323;52.022;5.686;2023-10-09T02:07:40;35.20;;;17.00;;
48534;SDS011;34323;52.022;5.686;2023-10-09T02:10:06;26.60;;;16.38;;
48534;SDS011;34323;52.022;5.686;2023-10-09T02:12:52;30.88;;;16.98;;
48534;SDS011;34323;52.022;5.686;2023-10-09T02:18:16;27.75;;;15.82;;
48534;SDS011;34323;52.022;5.686;2023-10-09T02:20:49;27.55;;;16.02;;
48534;SDS011;34323;52.022;5.686;2023-10-09T02:23:30;28.23;;;15.52;;
48534;SDS011;34323;52.022;5.686;2023-10-09T02:26:18;26.85;;;15.80;;
48534;SDS011;34323;52.022;5.686;2023-10-09T02:28:49;31.80;;;16.40;;
48534;SDS011;34323;52.022;5.686;2023-10-09T02:31:28;31.27;;;16.25;;
48534;SDS011;34323;52.022;5.686;2023-10-09T02:34:09;23.30;;;15.03;;
48534;SDS011;34323;52.022;5.686;2023-10-09T02:36:36;29.52;;;15.63;;
48534;SDS011;34323;52.022;5.686;2023-10-09T02:39:08;28.77;;;15.32;;
48534;SDS011;34323;52.022;5.686;2023-10-09T02:41:48;27.98;;;16.08;;
48534;SDS011;34323;52.022;5.686;2023-10-09T02:44:26;30.50;;;16.95;;
48534;SDS011;34323;52.022;5.686;2023-10-09T02:46:57;22.65;;;14.82;;
48534;SDS011;34323;52.022;5.686;2023-10-09T02:49:23;27.65;;;16.00;;
48534;SDS011;34323;52.022;5.686;2023-10-09T02:51:49;23.80;;;15.70;;
48534;SDS011;34323;52.022;5.686;2023-10-09T02:54:18;25.92;;;15.32;;
48534;SDS011;34323;52.022;5.686;2023-10-09T02:56:52;26.88;;;15.43;;
48534;SDS011;34323;52.022;5.686;2023-10-09T02:59:23;29.98;;;16.38;;
48534;SDS011;34323;52.022;5.686;2023-10-09T03:01:49;27.30;;;16.95;;
48534;SDS011;34323;52.022;5.686;2023-10-09T03:04:17;29.45;;;16.52;;
48534;SDS011;34323;52.022;5.686;2023-10-09T03:06:44;28.17;;;16.17;;
48534;SDS011;34323;52.022;5.686;2023-10-09T03:09:19;26.80;;;15.55;;
48534;SDS011;34323;52.022;5.686;2023-10-09T03:11:52;25.48;;;15.88;;
48534;SDS011;34323;52.022;5.686;2023-10-09T03:14:27;27.00;;;15.77;;
48534;SDS011;34323;52.022;5.686;2023-10-09T03:16:54;36.58;;;15.50;;
48534;SDS011;34323;52.022;5.686;2023-10-09T03:19:26;24.65;;;15.23;;
48534;SDS011;34323;52.022;5.686;2023-10-09T03:21:56;26.70;;;16.48;;
48534;SDS011;34323;52.022;5.686;2023-10-09T03:24:22;25.77;;;15.20;;
48534;SDS011;34323;52.022;5.686;2023-10-09T03:26:48;28.15;;;16.55;;
48534;SDS011;34323;52.022;5.686;2023-10-09T03:29:15;25.27;;;15.80;;
48534;SDS011;34323;52.022;5.686;2023-10-09T03:31:44;22.10;;;14.73;;
48534;SDS011;34323;52.022;5.686;2023-10-09T03:34:11;25.85;;;15.73;;
48534;SDS011;34323;52.022;5.686;2023-10-09T03:36:37;26.75;;;14.88;;
48534;SDS011;34323;52.022;5.686;2023-10-09T03:39:06;29.00;;;16.02;;
48534;SDS011;34323;52.022;5.686;2023-10-09T03:42:04;29.20;;;15.45;;
48534;SDS011;34323;52.022;5.686;2023-10-09T03:44:33;27.70;;;15.50;;
48534;SDS011;34323;52.022;5.686;2023-10-09T03:47:01;25.27;;;15.85;;
48534;SDS011;34323;52.022;5.686;2023-10-09T03:49:27;24.45;;;14.90;;
48534;SDS011;34323;52.022;5.686;2023-10-09T03:51:54;27.77;;;15.50;;
48534;SDS011;34323;52.022;5.686;2023-10-09T03:54:20;28.25;;;17.02;;
48534;SDS011;34323;52.022;5.686;2023-10-09T03:56:47;21.63;;;14.15;;
48534;SDS011;34323;52.022;5.686;2023-10-09T03:59:16;24.00;;;15.45;;
48534;SDS011;34323;52.022;5.686;2023-10-09T04:01:44;26.05;;;14.73;;
48534;SDS011;34323;52.022;5.686;2023-10-09T04:04:11;24.08;;;14.95;;
48534;SDS011;34323;52.022;5.686;2023-10-09T04:06:39;24.25;;;14.25;;
48534;SDS011;34323;52.022;5.686;2023-10-09T04:09:05;23.17;;;14.75;;
48534;SDS011;34323;52.022;5.686;2023-10-09T04:11:47;26.08;;;14.35;;
48534;SDS011;34323;52.022;5.686;2023-10-09T04:14:37;24.63;;;15.00;;
48534;SDS011;34323;52.022;5.686;2023-10-09T04:17:12;27.15;;;15.23;;
48534;SDS011;34323;52.022;5.686;2023-10-09T04:19:57;30.05;;;17.00;;
48534;SDS011;34323;52.022;5.686;2023-10-09T04:23:00;26.73;;;16.08;;
48534;SDS011;34323;52.022;5.686;2023-10-09T04:25:30;22.77;;;14.02;;
48534;SDS011;34323;52.022;5.686;2023-10-09T04:28:10;26.17;;;16.23;;
48534;SDS011;34323;52.022;5.686;2023-10-09T04:30:47;25.85;;;16.52;;
48534;SDS011;34323;52.022;5.686;2023-10-09T04:33:18;26.58;;;15.57;;
48534;SDS011;34323;52.022;5.686;2023-10-09T04:36:03;23.30;;;15.02;;
48534;SDS011;34323;52.022;5.686;2023-10-09T04:38:45;29.35;;;14.43;;
48534;SDS011;34323;52.022;5.686;2023-10-09T04:41:32;23.40;;;13.93;;
48534;SDS011;34323;52.022;5.686;2023-10-09T04:44:16;25.13;;;15.43;;
48534;SDS011;34323;52.022;5.686;2023-10-09T04:46:47;28.35;;;15.48;;
48534;SDS011;34323;52.022;5.686;2023-10-09T04:49:33;28.63;;;14.85;;
48534;SDS011;34323;52.022;5.686;2023-10-09T04:52:20;27.02;;;13.98;;
48534;SDS011;34323;52.022;5.686;2023-10-09T04:54:54;26.77;;;14.57;;
48534;SDS011;34323;52.022;5.686;2023-10-09T04:57:35;25.48;;;14.27;;
48534;SDS011;34323;52.022;5.686;2023-10-09T05:00:08;29.52;;;15.15;;
48534;SDS011;34323;52.022;5.686;2023-10-09T05:02:49;23.02;;;13.82;;
48534;SDS011;34323;52.022;5.686;2023-10-09T05:05:28;22.85;;;13.77;;
48534;SDS011;34323;52.022;5.686;2023-10-09T05:08:07;22.08;;;13.98;;
48534;SDS011;34323;52.022;5.686;2023-10-09T05:10:53;25.38;;;14.43;;
48534;SDS011;34323;52.022;5.686;2023-10-09T05:13:23;25.95;;;14.45;;
48534;SDS011;34323;52.022;5.686;2023-10-09T05:16:04;23.08;;;14.55;;
48534;SDS011;34323;52.022;5.686;2023-10-09T05:18:43;23.98;;;14.07;;
48534;SDS011;34323;52.022;5.686;2023-10-09T05:21:10;26.38;;;15.18;;
48534;SDS011;34323;52.022;5.686;2023-10-09T05:23:54;23.60;;;12.73;;
48534;SDS011;34323;52.022;5.686;2023-10-09T05:26:42;27.02;;;13.00;;
48534;SDS011;34323;52.022;5.686;2023-10-09T05:29:12;20.20;;;13.10;;
48534;SDS011;34323;52.022;5.686;2023-10-09T05:31:44;28.83;;;14.67;;
48534;SDS011;34323;52.022;5.686;2023-10-09T05:34:28;27.15;;;14.20;;
48534;SDS011;34323;52.022;5.686;2023-10-09T05:37:05;21.52;;;14.05;;
48534;SDS011;34323;52.022;5.686;2023-10-09T05:39:53;22.80;;;13.25;;
48534;SDS011;34323;52.022;5.686;2023-10-09T05:42:26;21.48;;;13.02;;
48534;SDS011;34323;52.022;5.686;2023-10-09T05:47:43;26.75;;;13.13;;
48534;SDS011;34323;52.022;5.686;2023-10-09T05:50:18;21.02;;;11.85;;
48534;SDS011;34323;52.022;5.686;2023-10-09T05:52:54;19.45;;;12.02;;
48534;SDS011;34323;52.022;5.686;2023-10-09T05:55:24;18.48;;;11.85;;
48534;SDS011;34323;52.022;5.686;2023-10-09T05:57:50;21.63;;;12.75;;
48534;SDS011;34323;52.022;5.686;2023-10-09T06:00:35;20.58;;;11.63;;
48534;SDS011;34323;52.022;5.686;2023-10-09T06:03:20;25.90;;;11.85;;
48534;SDS011;34323;52.022;5.686;2023-10-09T06:05:46;22.88;;;12.20;;
48534;SDS011;34323;52.022;5.686;2023-10-09T06:08:21;22.00;;;12.48;;
48534;SDS011;34323;52.022;5.686;2023-10-09T06:11:10;16.25;;;10.45;;
48534;SDS011;34323;52.022;5.686;2023-10-09T06:13:56;20.08;;;11.57;;
48534;SDS011;34323;52.022;5.686;2023-10-09T06:16:35;20.38;;;11.15;;
48534;SDS011;34323;52.022;5.686;2023-10-09T06:19:20;26.25;;;11.85;;
48534;SDS011;34323;52.022;5.686;2023-10-09T06:21:52;24.08;;;11.52;;
48534;SDS011;34323;52.022;5.686;2023-10-09T06:24:36;26.00;;;12.75;;
48534;SDS011;34323;52.022;5.686;2023-10-09T06:27:19;20.15;;;11.05;;
48534;SDS011;34323;52.022;5.686;2023-10-09T06:29:54;17.80;;;11.45;;
48534;SDS011;34323;52.022;5.686;2023-10-09T06:32:41;19.58;;;11.98;;
48534;SDS011;34323;52.022;5.686;2023-10-09T06:35:22;21.40;;;11.52;;
48534;SDS011;34323;52.022;5.686;2023-10-09T06:37:58;16.15;;;10.13;;
48534;SDS011;34323;52.022;5.686;2023-10-09T06:43:19;20.35;;;11.43;;
48534;SDS011;34323;52.022;5.686;2023-10-09T06:45:51;21.75;;;11.32;;
48534;SDS011;34323;52.022;5.686;2023-10-09T06:48:37;18.00;;;11.45;;
48534;SDS011;34323;52.022;5.686;2023-10-09T06:51:05;23.98;;;12.00;;
48534;SDS011;34323;52.022;5.686;2023-10-09T06:54:01;16.90;;;10.18;;
48534;SDS011;34323;52.022;5.686;2023-10-09T06:56:39;18.42;;;10.63;;
48534;SDS011;34323;52.022;5.686;2023-10-09T06:59:25;15.95;;;10.25;;
48534;SDS011;34323;52.022;5.686;2023-10-09T07:02:06;18.45;;;10.55;;
48534;SDS011;34323;52.022;5.686;2023-10-09T07:04:50;19.58;;;10.23;;
48534;SDS011;34323;52.022;5.686;2023-10-09T07:07:19;24.27;;;11.32;;
48534;SDS011;34323;52.022;5.686;2023-10-09T07:09:49;19.85;;;11.30;;
48534;SDS011;34323;52.022;5.686;2023-10-09T07:12:34;19.85;;;11.20;;
48534;SDS011;34323;52.022;5.686;2023-10-09T07:15:08;22.38;;;11.05;;
48534;SDS011;34323;52.022;5.686;2023-10-09T07:17:34;18.17;;;10.82;;
48534;SDS011;34323;52.022;5.686;2023-10-09T07:20:00;21.95;;;11.70;;
48534;SDS011;34323;52.022;5.686;2023-10-09T07:22:54;21.38;;;11.70;;
48534;SDS011;34323;52.022;5.686;2023-10-09T07:25:38;20.70;;;11.70;;
48534;SDS011;34323;52.022;5.686;2023-10-09T07:28:19;18.30;;;12.13;;
48534;SDS011;34323;52.022;5.686;2023-10-09T07:31:02;27.42;;;11.40;;
48534;SDS011;34323;52.022;5.686;2023-10-09T07:33:28;19.52;;;11.00;;
48534;SDS011;34323;52.022;5.686;2023-10-09T07:36:16;20.55;;;11.93;;
48534;SDS011;34323;52.022;5.686;2023-10-09T07:38:54;25.27;;;12.20;;
48534;SDS011;34323;52.022;5.686;2023-10-09T07:41:20;23.33;;;11.77;;
48534;SDS011;34323;52.022;5.686;2023-10-09T07:43:46;18.25;;;11.95;;
48534;SDS011;34323;52.022;5.686;2023-10-09T07:46:12;23.02;;;12.35;;
48534;SDS011;34323;52.022;5.686;2023-10-09T07:48:58;26.58;;;13.32;;
48534;SDS011;34323;52.022;5.686;2023-10-09T07:51:33;21.40;;;12.57;;
48534;SDS011;34323;52.022;5.686;2023-10-09T07:54:03;24.35;;;11.50;;
48534;SDS011;34323;52.022;5.686;2023-10-09T07:56:38;21.73;;;12.15;;
48534;SDS011;34323;52.022;5.686;2023-10-09T07:59:06;19.35;;;10.70;;
48534;SDS011;34323;52.022;5.686;2023-10-09T08:04:18;25.38;;;10.70;;
48534;SDS011;34323;52.022;5.686;2023-10-09T08:07:11;25.37;;;11.40;;
48534;SDS011;34323;52.022;5.686;2023-10-09T08:09:54;22.52;;;10.93;;
48534;SDS011;34323;52.022;5.686;2023-10-09T08:12:46;17.33;;;10.00;;
48534;SDS011;34323;52.022;5.686;2023-10-09T08:15:14;18.92;;;9.77;;
48534;SDS011;34323;52.022;5.686;2023-10-09T08:17:44;16.92;;;10.77;;
48534;SDS011;34323;52.022;5.686;2023-10-09T08:20:25;19.95;;;11.18;;
48534;SDS011;34323;52.022;5.686;2023-10-09T08:25:21;20.83;;;10.45;;
48534;SDS011;34323;52.022;5.686;2023-10-09T08:28:14;24.13;;;11.40;;
48534;SDS011;34323;52.022;5.686;2023-10-09T08:30:39;20.42;;;11.00;;
48534;SDS011;34323;52.022;5.686;2023-10-09T08:33:20;23.25;;;11.35;;
48534;SDS011;34323;52.022;5.686;2023-10-09T08:35:54;20.30;;;11.13;;
48534;SDS011;34323;52.022;5.686;2023-10-09T08:38:27;27.13;;;11.15;;
48534;SDS011;34323;52.022;5.686;2023-10-09T08:41:05;19.08;;;11.43;;
48534;SDS011;34323;52.022;5.686;2023-10-09T08:43:43;22.95;;;11.32;;
48534;SDS011;34323;52.022;5.686;2023-10-09T08:46:15;21.35;;;11.13;;
48534;SDS011;34323;52.022;5.686;2023-10-09T08:48:45;25.58;;;11.55;;
48534;SDS011;34323;52.022;5.686;2023-10-09T08:51:12;23.13;;;11.75;;
48534;SDS011;34323;52.022;5.686;2023-10-09T08:53:39;30.67;;;11.73;;
48534;SDS011;34323;52.022;5.686;2023-10-09T08:56:12;15.95;;;9.70;;
48534;SDS011;34323;52.022;5.686;2023-10-09T08:58:40;23.63;;;10.57;;
48534;SDS011;34323;52.022;5.686;2023-10-09T09:01:06;15.45;;;9.85;;
48534;SDS011;34323;52.022;5.686;2023-10-09T09:03:38;18.27;;;9.20;;
48534;SDS011;34323;52.022;5.686;2023-10-09T09:06:07;19.08;;;10.68;;
48534;SDS011;34323;52.022;5.686;2023-10-09T09:08:33;16.13;;;9.52;;
48534;SDS011;34323;52.022;5.686;2023-10-09T09:11:07;15.30;;;9.52;;
48534;SDS011;34323;52.022;5.686;2023-10-09T09:16:23;22.13;;;9.23;;
48534;SDS011;34323;52.022;5.686;2023-10-09T09:18:59;21.55;;;10.63;;
48534;SDS011;34323;52.022;5.686;2023-10-09T09:24:06;18.17;;;10.48;;
48534;SDS011;34323;52.022;5.686;2023-10-09T09:27:02;18.15;;;8.70;;
48534;SDS011;34323;52.022;5.686;2023-10-09T09:32:07;17.55;;;8.57;;
48534;SDS011;34323;52.022;5.686;2023-10-09T09:34:47;14.32;;;8.43;;
48534;SDS011;34323;52.022;5.686;2023-10-09T09:37:20;22.10;;;9.18;;
48534;SDS011;34323;52.022;5.686;2023-10-09T09:40:04;14.55;;;8.32;;
48534;SDS011;34323;52.022;5.686;2023-10-09T09:42:49;15.40;;;8.60;;
48534;SDS011;34323;52.022;5.686;2023-10-09T09:45:33;11.25;;;7.13;;
48534;SDS011;34323;52.022;5.686;2023-10-09T09:48:04;13.30;;;7.97;;
48534;SDS011;34323;52.022;5.686;2023-10-09T09:50:35;13.02;;;7.72;;
48534;SDS011;34323;52.022;5.686;2023-10-09T09:53:13;13.00;;;7.25;;
48534;SDS011;34323;52.022;5.686;2023-10-09T09:58:20;17.40;;;7.45;;
48534;SDS011;34323;52.022;5.686;2023-10-09T10:00:56;14.18;;;8.00;;
48534;SDS011;34323;52.022;5.686;2023-10-09T10:03:40;15.15;;;7.47;;
48534;SDS011;34323;52.022;5.686;2023-10-09T10:06:12;14.50;;;7.47;;
48534;SDS011;34323;52.022;5.686;2023-10-09T10:08:41;13.52;;;7.50;;
48534;SDS011;34323;52.022;5.686;2023-10-09T10:11:07;11.85;;;7.22;;
48534;SDS011;34323;52.022;5.686;2023-10-09T10:16:15;13.52;;;7.10;;
48534;SDS011;34323;52.022;5.686;2023-10-09T10:18:59;10.32;;;6.05;;
48534;SDS011;34323;52.022;5.686;2023-10-09T10:21:44;19.70;;;7.05;;
48534;SDS011;34323;52.022;5.686;2023-10-09T10:27:16;19.30;;;6.88;;
48534;SDS011;34323;52.022;5.686;2023-10-09T10:32:57;14.57;;;6.20;;
48534;SDS011;34323;52.022;5.686;2023-10-09T10:35:24;13.20;;;6.50;;
48534;SDS011;34323;52.022;5.686;2023-10-09T10:43:36;13.43;;;6.22;;
48534;SDS011;34323;52.022;5.686;2023-10-09T10:46:17;13.63;;;6.05;;
48534;SDS011;34323;52.022;5.686;2023-10-09T10:51:46;9.70;;;5.15;;
48534;SDS011;34323;52.022;5.686;2023-10-09T10:54:40;14.68;;;6.15;;
48534;SDS011;34323;52.022;5.686;2023-10-09T10:57:19;15.50;;;5.95;;
48534;SDS011;34323;52.022;5.686;2023-10-09T10:59:56;14.05;;;6.07;;
48534;SDS011;34323;52.022;5.686;2023-10-09T11:02:41;13.93;;;5.97;;
48534;SDS011;34323;52.022;5.686;2023-10-09T11:05:09;11.73;;;6.15;;
48534;SDS011;34323;52.022;5.686;2023-10-09T11:07:48;13.15;;;6.28;;
48534;SDS011;34323;52.022;5.686;2023-10-09T11:10:21;16.98;;;6.43;;
48534;SDS011;34323;52.022;5.686;2023-10-09T11:12:52;12.75;;;6.43;;
48534;SDS011;34323;52.022;5.686;2023-10-09T11:15:29;10.68;;;5.63;;
48534;SDS011;34323;52.022;5.686;2023-10-09T11:18:09;11.60;;;5.88;;
48534;SDS011;34323;52.022;5.686;2023-10-09T11:20:44;11.30;;;5.75;;
48534;SDS011;34323;52.022;5.686;2023-10-09T11:23:28;14.38;;;5.90;;
48534;SDS011;34323;52.022;5.686;2023-10-09T11:25:58;9.60;;;5.25;;
48534;SDS011;34323;52.022;5.686;2023-10-09T11:28:44;11.60;;;5.45;;
48534;SDS011;34323;52.022;5.686;2023-10-09T11:31:22;13.88;;;5.88;;
48534;SDS011;34323;52.022;5.686;2023-10-09T11:33:49;8.90;;;5.32;;
48534;SDS011;34323;52.022;5.686;2023-10-09T11:36:19;14.73;;;5.38;;
48534;SDS011;34323;52.022;5.686;2023-10-09T11:38:56;10.27;;;5.95;;
48534;SDS011;34323;52.022;5.686;2023-10-09T11:41:41;15.43;;;6.13;;
48534;SDS011;34323;52.022;5.686;2023-10-09T11:44:09;12.02;;;5.22;;
48534;SDS011;34323;52.022;5.686;2023-10-09T11:46:56;11.85;;;5.13;;
48534;SDS011;34323;52.022;5.686;2023-10-09T11:49:23;10.65;;;5.93;;
48534;SDS011;34323;52.022;5.686;2023-10-09T11:52:09;14.77;;;4.82;;
48534;SDS011;34323;52.022;5.686;2023-10-09T11:54:37;12.68;;;4.70;;
48534;SDS011;34323;52.022;5.686;2023-10-09T11:57:03;9.38;;;4.15;;
48534;SDS011;34323;52.022;5.686;2023-10-09T11:59:32;10.13;;;5.03;;
48534;SDS011;34323;52.022;5.686;2023-10-09T12:02:08;9.05;;;4.43;;
48534;SDS011;34323;52.022;5.686;2023-10-09T12:04:38;11.77;;;5.00;;
48534;SDS011;34323;52.022;5.686;2023-10-09T12:07:07;12.82;;;4.18;;
48534;SDS011;34323;52.022;5.686;2023-10-09T12:09:34;14.45;;;5.25;;
48534;SDS011;34323;52.022;5.686;2023-10-09T12:12:03;12.48;;;4.82;;
48534;SDS011;34323;52.022;5.686;2023-10-09T12:14:35;12.90;;;5.30;;
48534;SDS011;34323;52.022;5.686;2023-10-09T12:17:04;14.15;;;4.97;;
48534;SDS011;34323;52.022;5.686;2023-10-09T12:19:37;11.25;;;4.65;;
48534;SDS011;34323;52.022;5.686;2023-10-09T12:25:16;9.35;;;4.80;;
48534;SDS011;34323;52.022;5.686;2023-10-09T12:27:44;14.20;;;5.03;;
48534;SDS011;34323;52.022;5.686;2023-10-09T12:30:13;10.02;;;4.38;;
48534;SDS011;34323;52.022;5.686;2023-10-09T12:32:51;9.23;;;4.35;;
48534;SDS011;34323;52.022;5.686;2023-10-09T12:35:22;12.32;;;4.95;;
48534;SDS011;34323;52.022;5.686;2023-10-09T12:37:50;13.77;;;5.22;;
48534;SDS011;34323;52.022;5.686;2023-10-09T12:40:16;16.85;;;5.05;;
48534;SDS011;34323;52.022;5.686;2023-10-09T12:42:49;12.35;;;5.38;;
48534;SDS011;34323;52.022;5.686;2023-10-09T12:45:15;10.43;;;4.65;;
48534;SDS011;34323;52.022;5.686;2023-10-09T12:47:43;14.80;;;5.60;;
48534;SDS011;34323;52.022;5.686;2023-10-09T12:50:08;13.50;;;5.20;;
48534;SDS011;34323;52.022;5.686;2023-10-09T12:52:38;14.93;;;5.38;;
48534;SDS011;34323;52.022;5.686;2023-10-09T12:55:05;12.35;;;5.32;;
48534;SDS011;34323;52.022;5.686;2023-10-09T12:57:33;15.10;;;5.40;;
48534;SDS011;34323;52.022;5.686;2023-10-09T12:59:59;13.23;;;4.72;;
48534;SDS011;34323;52.022;5.686;2023-10-09T13:02:24;12.05;;;5.20;;
48534;SDS011;34323;52.022;5.686;2023-10-09T13:04:56;11.95;;;4.95;;
48534;SDS011;34323;52.022;5.686;2023-10-09T13:07:24;11.48;;;5.03;;
48534;SDS011;34323;52.022;5.686;2023-10-09T13:09:50;13.10;;;4.82;;
48534;SDS011;34323;52.022;5.686;2023-10-09T13:12:34;13.35;;;5.30;;
48534;SDS011;34323;52.022;5.686;2023-10-09T13:15:10;9.53;;;4.67;;
48534;SDS011;34323;52.022;5.686;2023-10-09T13:17:36;14.68;;;5.88;;
48534;SDS011;34323;52.022;5.686;2023-10-09T13:20:03;7.78;;;4.18;;
48534;SDS011;34323;52.022;5.686;2023-10-09T13:22:39;14.05;;;4.72;;
48534;SDS011;34323;52.022;5.686;2023-10-09T13:25:06;11.65;;;5.30;;
48534;SDS011;34323;52.022;5.686;2023-10-09T13:27:39;9.18;;;5.15;;
48534;SDS011;34323;52.022;5.686;2023-10-09T13:30:05;12.90;;;4.70;;
48534;SDS011;34323;52.022;5.686;2023-10-09T13:32:33;9.77;;;5.18;;
48534;SDS011;34323;52.022;5.686;2023-10-09T13:35:00;10.88;;;4.78;;
48534;SDS011;34323;52.022;5.686;2023-10-09T13:37:30;9.02;;;4.30;;
48534;SDS011;34323;52.022;5.686;2023-10-09T13:40:02;10.57;;;5.13;;
48534;SDS011;34323;52.022;5.686;2023-10-09T13:42:34;10.40;;;4.13;;
48534;SDS011;34323;52.022;5.686;2023-10-09T13:45:02;12.90;;;4.40;;
48534;SDS011;34323;52.022;5.686;2023-10-09T13:47:40;10.88;;;4.32;;
48534;SDS011;34323;52.022;5.686;2023-10-09T13:50:10;8.23;;;4.32;;
48534;SDS011;34323;52.022;5.686;2023-10-09T13:52:36;8.85;;;4.43;;
48534;SDS011;34323;52.022;5.686;2023-10-09T13:55:04;12.20;;;5.18;;
48534;SDS011;34323;52.022;5.686;2023-10-09T13:57:40;10.27;;;5.60;;
48534;SDS011;34323;52.022;5.686;2023-10-09T14:00:08;8.82;;;4.72;;
48534;SDS011;34323;52.022;5.686;2023-10-09T14:02:36;14.30;;;5.10;;
48534;SDS011;34323;52.022;5.686;2023-10-09T14:05:03;11.35;;;4.72;;
48534;SDS011;34323;52.022;5.686;2023-10-09T14:07:29;11.68;;;4.38;;
48534;SDS011;34323;52.022;5.686;2023-10-09T14:09:54;8.50;;;4.72;;
48534;SDS011;34323;52.022;5.686;2023-10-09T14:12:20;15.82;;;4.88;;
48534;SDS011;34323;52.022;5.686;2023-10-09T14:14:47;11.40;;;4.82;;
48534;SDS011;34323;52.022;5.686;2023-10-09T14:17:17;12.10;;;4.35;;
48534;SDS011;34323;52.022;5.686;2023-10-09T14:19:51;12.93;;;4.18;;
48534;SDS011;34323;52.022;5.686;2023-10-09T14:22:18;14.57;;;5.10;;
48534;SDS011;34323;52.022;5.686;2023-10-09T14:24:49;16.88;;;4.85;;
48534;SDS011;34323;52.022;5.686;2023-10-09T14:27:20;11.95;;;4.88;;
48534;SDS011;34323;52.022;5.686;2023-10-09T14:29:50;12.98;;;5.00;;
48534;SDS011;34323;52.022;5.686;2023-10-09T14:32:20;17.25;;;4.93;;
48534;SDS011;34323;52.022;5.686;2023-10-09T14:34:53;9.32;;;5.13;;
48534;SDS011;34323;52.022;5.686;2023-10-09T14:37:19;10.68;;;5.25;;
48534;SDS011;34323;52.022;5.686;2023-10-09T14:39:48;12.00;;;4.97;;
48534;SDS011;34323;52.022;5.686;2023-10-09T14:42:15;15.27;;;5.53;;
48534;SDS011;34323;52.022;5.686;2023-10-09T14:44:41;15.02;;;5.97;;
48534;SDS011;34323;52.022;5.686;2023-10-09T14:47:09;13.18;;;5.20;;
48534;SDS011;34323;52.022;5.686;2023-10-09T14:49:36;11.88;;;5.30;;
48534;SDS011;34323;52.022;5.686;2023-10-09T14:52:11;12.13;;;5.60;;
48534;SDS011;34323;52.022;5.686;2023-10-09T14:54:41;12.90;;;5.07;;
48534;SDS011;34323;52.022;5.686;2023-10-09T14:57:09;13.18;;;5.63;;
48534;SDS011;34323;52.022;5.686;2023-10-09T14:59:36;10.35;;;4.72;;
48534;SDS011;34323;52.022;5.686;2023-10-09T15:02:02;15.32;;;5.43;;
48534;SDS011;34323;52.022;5.686;2023-10-09T15:04:30;12.60;;;4.93;;
48534;SDS011;34323;52.022;5.686;2023-10-09T15:06:56;12.18;;;5.57;;
48534;SDS011;34323;52.022;5.686;2023-10-09T15:09:22;9.52;;;4.63;;
48534;SDS011;34323;52.022;5.686;2023-10-09T15:11:48;12.07;;;4.30;;
48534;SDS011;34323;52.022;5.686;2023-10-09T15:14:15;13.05;;;4.55;;
48534;SDS011;34323;52.022;5.686;2023-10-09T15:16:41;13.65;;;5.63;;
48534;SDS011;34323;52.022;5.686;2023-10-09T15:19:08;9.80;;;4.63;;
48534;SDS011;34323;52.022;5.686;2023-10-09T15:21:35;9.38;;;4.95;;
48534;SDS011;34323;52.022;5.686;2023-10-09T15:24:08;15.35;;;5.00;;
48534;SDS011;34323;52.022;5.686;2023-10-09T15:26:41;15.13;;;4.70;;
48534;SDS011;34323;52.022;5.686;2023-10-09T15:29:07;11.75;;;4.25;;
48534;SDS011;34323;52.022;5.686;2023-10-09T15:31:37;12.93;;;4.38;;
48534;SDS011;34323;52.022;5.686;2023-10-09T15:34:05;11.75;;;4.88;;
48534;SDS011;34323;52.022;5.686;2023-10-09T15:36:33;13.18;;;4.70;;
48534;SDS011;34323;52.022;5.686;2023-10-09T15:39:00;13.80;;;4.78;;
48534;SDS011;34323;52.022;5.686;2023-10-09T15:41:35;9.88;;;4.43;;
48534;SDS011;34323;52.022;5.686;2023-10-09T15:44:00;13.23;;;4.70;;
48534;SDS011;34323;52.022;5.686;2023-10-09T15:46:26;13.68;;;6.43;;
48534;SDS011;34323;52.022;5.686;2023-10-09T15:48:58;11.02;;;5.43;;
48534;SDS011;34323;52.022;5.686;2023-10-09T15:51:25;15.55;;;5.43;;
48534;SDS011;34323;52.022;5.686;2023-10-09T15:53:52;15.85;;;5.55;;